Time;durP1;ratioP1;P1;durP2;ratioP2;P2;SDS_P1;SDS_P2;PMS_P1;PMS_P2;Temp;Humidity;BMP_temperature;BMP_pressure;BME280_temperature;BME280_humidity;BME280_pressure;Samples;Min_cycle;Max_cycle;Signal;HPM_P1;HPM_P2
2022/06/19 00:01:24;;;;;;;15.40;3.05;;;;;;;18.64;73.87;100687.78;5055141;28;20112;-64
2022/06/19 00:03:54;;;;;;;16.27;3.35;;;;;;;18.56;73.61;100694.28;5054808;28;20064;-63
2022/06/19 00:06:20;;;;;;;18.23;3.40;;;;;;;18.47;74.33;100693.63;5054885;28;20028;-63
2022/06/19 00:08:48;;;;;;;19.45;3.30;;;;;;;18.42;74.15;100692.91;5054866;28;20104;-63
2022/06/19 00:11:16;;;;;;;17.83;3.30;;;;;;;18.34;74.33;100688.72;5054851;28;20029;-63
2022/06/19 00:13:42;;;;;;;16.33;3.17;;;;;;;18.34;74.36;100681.56;5054808;28;20029;-64
2022/06/19 00:16:08;;;;;;;18.63;3.10;;;;;;;18.30;74.37;100679.91;5055039;28;20033;-64
2022/06/19 00:18:34;;;;;;;16.20;3.15;;;;;;;18.26;74.58;100683.59;5054602;28;20029;-63
2022/06/19 00:21:00;;;;;;;20.85;3.55;;;;;;;18.21;74.42;100677.50;5054487;28;20525;-63
2022/06/19 00:23:26;;;;;;;15.25;3.17;;;;;;;18.23;74.25;100686.34;5054708;28;20021;-64
2022/06/19 00:25:51;;;;;;;16.50;3.40;;;;;;;18.17;74.43;100682.06;5054596;28;20032;-64
2022/06/19 00:28:16;;;;;;;14.05;2.97;;;;;;;18.24;74.21;100688.13;5054629;28;20029;-64
2022/06/19 00:30:42;;;;;;;18.67;3.40;;;;;;;18.21;74.32;100694.44;5054753;28;20044;-64
2022/06/19 00:33:07;;;;;;;17.75;3.40;;;;;;;18.17;74.53;100710.63;5054571;28;20017;-64
2022/06/19 00:35:32;;;;;;;17.95;3.38;;;;;;;18.11;74.24;100715.25;5054401;28;20033;-64
2022/06/19 00:37:58;;;;;;;15.60;3.15;;;;;;;18.00;75.16;100711.09;5054392;28;20086;-64
2022/06/19 00:40:26;;;;;;;16.08;3.45;;;;;;;17.93;74.82;100718.44;5054379;28;20021;-64
2022/06/19 00:42:52;;;;;;;19.13;3.22;;;;;;;17.92;74.32;100714.00;5054496;28;20384;-64
2022/06/19 00:45:39;;;;;;;18.60;3.20;;;;;;;17.83;74.13;100703.53;5054084;28;20146;-64
2022/06/19 00:48:09;;;;;;;17.13;3.17;;;;;;;17.66;74.39;100694.16;5054189;28;20029;-64
2022/06/19 00:50:36;;;;;;;19.60;3.30;;;;;;;17.59;74.10;100706.84;5053997;28;20103;-64
2022/06/19 00:53:05;;;;;;;17.27;3.15;;;;;;;17.42;74.20;100695.72;5054113;28;20025;-64
2022/06/19 00:55:36;;;;;;;17.42;3.60;;;;;;;17.34;73.71;100697.72;5054081;28;20032;-64
2022/06/19 00:58:11;;;;;;;19.52;3.50;;;;;;;17.25;73.54;100710.38;5053929;28;20032;-64
2022/06/19 01:00:38;;;;;;;18.17;3.28;;;;;;;17.23;73.33;100714.03;5049904;28;20045;-64
2022/06/19 01:03:11;;;;;;;19.58;3.40;;;;;;;17.18;72.46;100706.13;5053182;28;20035;-64
2022/06/19 01:05:41;;;;;;;17.70;3.28;;;;;;;17.23;72.02;100703.34;5049703;28;20060;-64
2022/06/19 01:08:06;;;;;;;18.88;3.50;;;;;;;17.17;71.72;100693.69;5049843;28;20024;-64
2022/06/19 01:10:37;;;;;;;17.77;3.50;;;;;;;17.17;70.95;100691.03;5053570;28;20021;-63
2022/06/19 01:13:02;;;;;;;17.90;3.22;;;;;;;17.12;71.39;100690.25;5053866;28;20025;-63
2022/06/19 01:15:27;;;;;;;18.77;3.35;;;;;;;17.08;71.42;100696.56;5053855;28;20031;-63
2022/06/19 01:17:58;;;;;;;21.00;3.63;;;;;;;17.11;70.98;100741.94;5053465;28;20103;-63
2022/06/19 01:20:25;;;;;;;19.10;3.20;;;;;;;17.11;69.87;100831.81;5053886;28;20029;-63
2022/06/19 01:23:23;;;;;;;20.52;3.47;;;;;;;17.24;68.58;100892.97;5053507;28;20021;-63
2022/06/19 01:25:51;;;;;;;17.77;3.38;;;;;;;16.94;69.36;100835.75;5051113;28;20033;-63
2022/06/19 01:31:20;;;;;;;18.17;3.13;;;;;;;16.63;69.51;100803.47;5050735;28;20040;-64
2022/06/19 01:33:53;;;;;;;18.17;3.43;;;;;;;16.52;68.81;100849.06;5053328;28;20029;-63
2022/06/19 01:36:20;;;;;;;19.38;3.30;;;;;;;16.45;68.02;100821.63;5053370;28;20110;-63
2022/06/19 01:38:49;;;;;;;20.63;3.22;;;;;;;16.21;68.25;100770.53;5053148;28;20021;-63
2022/06/19 01:41:20;;;;;;;19.33;3.38;;;;;;;16.14;67.88;100803.56;5052946;28;20472;-63
2022/06/19 01:43:47;;;;;;;17.20;3.25;;;;;;;16.24;67.49;100860.28;5052791;28;20472;-64
2022/06/19 01:46:14;;;;;;;19.73;2.97;;;;;;;16.15;67.54;100845.34;5053080;28;20014;-63
2022/06/19 01:48:41;;;;;;;19.05;3.10;;;;;;;15.99;67.73;100795.88;5053098;28;20017;-63
2022/06/19 01:51:07;;;;;;;16.52;2.70;;;;;;;16.03;66.52;100819.78;5053252;28;20032;-63
2022/06/19 01:53:39;;;;;;;20.45;3.20;;;;;;;16.03;66.64;100834.88;5052826;28;20104;-63
2022/06/19 01:56:07;;;;;;;17.20;2.97;;;;;;;15.91;65.44;100804.00;5052972;28;20025;-63
2022/06/19 01:58:34;;;;;;;20.02;3.40;;;;;;;15.80;65.07;100827.28;5052993;28;20087;-64
2022/06/19 02:01:04;;;;;;;19.33;3.10;;;;;;;15.79;64.15;100830.88;5052965;28;20036;-63
2022/06/19 02:03:37;;;;;;;17.60;2.88;;;;;;;15.62;64.41;100818.69;5053136;28;20048;-64
2022/06/19 02:06:03;;;;;;;21.67;3.13;;;;;;;15.75;63.31;100839.81;5052766;28;20029;-63
2022/06/19 02:08:32;;;;;;;16.35;2.95;;;;;;;15.68;62.58;100831.94;5052486;28;20056;-64
2022/06/19 02:10:59;;;;;;;19.60;3.00;;;;;;;15.62;61.61;100825.81;5052605;28;20483;-63
2022/06/19 02:13:25;;;;;;;18.73;3.10;;;;;;;15.51;61.10;100834.00;5052989;28;20029;-63
2022/06/19 02:15:52;;;;;;;18.70;2.83;;;;;;;15.52;60.79;100825.97;5051786;28;20028;-63
2022/06/19 02:18:23;;;;;;;18.80;2.92;;;;;;;15.47;60.61;100816.28;5052490;28;20028;-63
2022/06/19 02:20:52;;;;;;;17.58;3.22;;;;;;;15.55;59.44;100809.03;5052582;28;20543;-63
2022/06/19 02:23:28;;;;;;;18.02;2.90;;;;;;;15.54;59.90;100827.72;5052297;28;20468;-63
2022/06/19 02:25:54;;;;;;;18.13;3.00;;;;;;;15.43;60.07;100826.09;5052298;28;20021;-63
2022/06/19 02:28:20;;;;;;;20.33;3.08;;;;;;;15.42;60.57;100834.13;5052549;28;20075;-63
2022/06/19 02:30:47;;;;;;;20.13;3.20;;;;;;;15.48;60.25;100836.72;5052711;28;20530;-63
2022/06/19 02:33:15;;;;;;;18.92;3.05;;;;;;;15.58;59.38;100850.72;5052564;28;20025;-63
2022/06/19 02:35:41;;;;;;;17.80;3.10;;;;;;;15.49;59.71;100841.09;5052326;28;20025;-63
2022/06/19 02:38:07;;;;;;;16.90;2.80;;;;;;;15.51;59.52;100852.63;5048221;28;20068;-63
2022/06/19 02:40:54;;;;;;;18.77;2.80;;;;;;;15.55;59.32;100840.13;5052287;28;20446;-63
2022/06/19 02:43:25;;;;;;;20.75;2.72;;;;;;;15.60;58.69;100855.13;5049939;28;20029;-64
2022/06/19 02:45:50;;;;;;;18.75;2.75;;;;;;;15.49;58.92;100857.09;5051918;28;20082;-63
2022/06/19 02:48:24;;;;;;;15.00;2.80;;;;;;;15.54;57.91;100839.25;5052352;28;20116;-63
2022/06/19 02:50:51;;;;;;;18.73;2.90;;;;;;;15.55;58.55;100824.16;5052394;28;20017;-64
2022/06/19 02:53:18;;;;;;;17.73;2.90;;;;;;;15.56;57.01;100834.78;5052438;28;20029;-63
2022/06/19 02:55:44;;;;;;;16.05;2.80;;;;;;;15.54;56.50;100825.03;5052315;28;20083;-63
2022/06/19 02:58:10;;;;;;;19.13;3.30;;;;;;;15.52;56.64;100844.63;5052459;28;20025;-63
2022/06/19 03:00:37;;;;;;;15.85;2.92;;;;;;;15.51;56.33;100924.56;5052111;28;20116;-63
2022/06/19 03:03:18;;;;;;;16.60;2.50;;;;;;;15.60;55.99;100952.84;5052142;28;20036;-63
2022/06/19 03:05:43;;;;;;;17.85;2.72;;;;;;;15.45;55.73;100937.94;5049306;28;20418;-63
2022/06/19 03:08:09;;;;;;;19.98;3.00;;;;;;;15.33;56.37;100899.06;5052122;28;20095;-64
2022/06/19 03:10:35;;;;;;;16.90;2.55;;;;;;;15.23;56.77;100873.47;5052005;28;20025;-63
2022/06/19 03:13:00;;;;;;;14.15;2.47;;;;;;;15.22;55.51;100861.94;5052120;28;20490;-63
2022/06/19 03:15:26;;;;;;;11.52;2.42;;;;;;;15.19;55.39;100877.97;5052013;28;20131;-63
2022/06/19 03:17:52;;;;;;;16.10;2.60;;;;;;;15.19;55.30;100856.66;5051799;28;20048;-63
2022/06/19 03:20:20;;;;;;;19.27;2.65;;;;;;;15.26;54.75;100842.38;5052403;28;20025;-63
2022/06/19 03:22:45;;;;;;;17.95;2.60;;;;;;;15.09;55.43;100828.41;5051895;28;20025;-63
2022/06/19 03:25:11;;;;;;;12.02;2.28;;;;;;;15.01;55.06;100820.53;5051909;28;20036;-63
2022/06/19 03:27:37;;;;;;;16.30;2.30;;;;;;;15.04;54.90;100820.47;5055645;28;20029;-64
2022/06/19 03:30:03;;;;;;;16.33;2.40;;;;;;;15.09;54.35;100845.25;5055522;28;20067;-63
2022/06/19 03:32:28;;;;;;;12.98;2.30;;;;;;;15.04;54.06;100864.88;5055392;28;20070;-63
2022/06/19 03:34:53;;;;;;;13.07;2.35;;;;;;;15.04;53.88;100835.59;5055474;28;20021;-63
2022/06/19 03:37:19;;;;;;;13.88;2.40;;;;;;;14.96;54.34;100809.94;5055431;28;20108;-64
2022/06/19 03:39:44;;;;;;;12.50;2.20;;;;;;;14.95;54.35;100804.66;5055568;28;20036;-64
2022/06/19 03:42:14;;;;;;;12.23;2.15;;;;;;;14.89;54.61;100816.25;5055348;28;20032;-64
2022/06/19 03:44:40;;;;;;;13.45;2.13;;;;;;;14.86;55.00;100815.44;5051305;28;20114;-63
2022/06/19 03:47:05;;;;;;;14.13;2.10;;;;;;;14.85;55.17;100761.31;5055365;28;20515;-63
2022/06/19 03:49:31;;;;;;;14.38;2.30;;;;;;;14.80;55.48;100779.16;5055120;28;20372;-64
2022/06/19 03:51:56;;;;;;;17.30;2.55;;;;;;;14.81;55.74;100804.84;5055085;28;20061;-64
2022/06/19 03:54:21;;;;;;;11.13;2.13;;;;;;;14.85;55.37;100862.44;5055270;28;20033;-64
2022/06/19 03:56:47;;;;;;;13.45;2.20;;;;;;;14.94;54.57;100920.88;5054897;28;20033;-64
2022/06/19 03:59:15;;;;;;;13.00;2.20;;;;;;;14.89;54.71;100920.06;5054055;28;20060;-64
2022/06/19 04:01:40;;;;;;;14.00;2.20;;;;;;;14.84;55.42;100860.69;5051335;28;20025;-63
2022/06/19 04:04:07;;;;;;;13.68;2.10;;;;;;;14.83;53.20;100840.31;5054695;28;20151;-64
2022/06/19 04:06:36;;;;;;;9.88;2.10;;;;;;;14.85;53.91;100849.13;5054795;28;20036;-64
2022/06/19 04:09:03;;;;;;;15.20;2.28;;;;;;;14.89;52.55;100842.88;5054073;28;20094;-64
2022/06/19 04:11:30;;;;;;;12.85;2.20;;;;;;;14.86;53.48;100808.31;5053437;28;20071;-64
2022/06/19 04:13:56;;;;;;;11.88;2.10;;;;;;;14.86;52.32;100788.81;5054759;28;20032;-64
2022/06/19 04:16:25;;;;;;;12.63;2.17;;;;;;;14.80;53.26;100758.72;5054916;28;20024;-64
2022/06/19 04:18:52;;;;;;;13.63;1.95;;;;;;;14.79;53.23;100729.47;5054472;28;20028;-64
2022/06/19 04:21:21;;;;;;;17.25;2.30;;;;;;;14.78;52.96;100719.72;5054558;28;20484;-64
2022/06/19 04:23:46;;;;;;;13.48;2.22;;;;;;;14.81;54.49;100701.94;5054680;28;20033;-63
2022/06/19 04:26:14;;;;;;;11.85;2.00;;;;;;;14.78;54.39;100677.16;5054797;28;20033;-64
2022/06/19 04:28:39;;;;;;;12.98;2.15;;;;;;;14.79;55.09;100663.84;5050488;28;20021;-64
2022/06/19 04:31:06;;;;;;;13.75;2.60;;;;;;;14.82;55.68;100662.91;5054569;28;20461;-63
2022/06/19 04:33:35;;;;;;;13.35;2.40;;;;;;;14.81;56.19;100664.69;5054125;28;20467;-63
2022/06/19 04:36:00;;;;;;;17.23;2.72;;;;;;;14.87;56.41;100663.72;5054555;28;20033;-64
2022/06/19 04:38:28;;;;;;;16.65;2.47;;;;;;;14.91;56.37;100673.44;5053482;28;20406;-64
2022/06/19 04:40:54;;;;;;;12.90;2.60;;;;;;;14.99;57.32;100679.47;5054502;28;20040;-64
2022/06/19 04:43:19;;;;;;;16.88;2.55;;;;;;;14.98;57.89;100669.75;5054067;28;20021;-64
2022/06/19 04:45:44;;;;;;;17.55;2.55;;;;;;;15.05;58.00;100670.50;5054094;28;20045;-64
2022/06/19 04:48:10;;;;;;;15.65;2.30;;;;;;;15.13;57.59;100675.69;5053916;28;20025;-64
2022/06/19 04:50:36;;;;;;;17.65;2.70;;;;;;;15.11;57.98;100651.75;5054322;28;20103;-64
2022/06/19 04:53:01;;;;;;;15.07;2.78;;;;;;;15.18;59.30;100609.94;5054227;28;20392;-64
2022/06/19 04:55:27;;;;;;;13.30;2.42;;;;;;;15.14;59.42;100611.81;5054085;28;20032;-64
2022/06/19 04:57:52;;;;;;;12.35;2.75;;;;;;;15.08;59.26;100608.38;5053915;28;20021;-64
2022/06/19 05:00:19;;;;;;;15.38;2.40;;;;;;;15.04;59.65;100604.88;5054021;28;20033;-63
2022/06/19 05:02:48;;;;;;;16.02;2.63;;;;;;;15.10;60.35;100618.09;5053741;28;20036;-63
2022/06/19 05:05:18;;;;;;;19.30;2.50;;;;;;;15.21;60.09;100625.88;5053698;28;20460;-64
2022/06/19 05:07:43;;;;;;;14.00;2.30;;;;;;;15.26;58.99;100645.31;5053945;28;20029;-63
2022/06/19 05:10:10;;;;;;;14.55;2.40;;;;;;;15.23;58.85;100682.66;5053785;28;20021;-63
2022/06/19 05:12:35;;;;;;;13.52;2.30;;;;;;;15.27;57.46;100700.31;5053562;28;20025;-63
2022/06/19 05:15:01;;;;;;;14.60;2.30;;;;;;;15.35;58.68;100697.53;5054087;28;20055;-63
2022/06/19 05:17:26;;;;;;;15.75;2.55;;;;;;;15.31;59.47;100686.03;5053487;28;20025;-64
2022/06/19 05:19:51;;;;;;;16.50;2.50;;;;;;;15.36;59.19;100677.97;5053456;28;20025;-63
2022/06/19 05:22:16;;;;;;;15.10;2.55;;;;;;;15.45;59.26;100688.47;5053880;28;20025;-63
2022/06/19 05:24:42;;;;;;;16.08;2.53;;;;;;;15.54;58.62;100699.84;5053225;28;20447;-63
2022/06/19 05:27:11;;;;;;;12.70;2.28;;;;;;;15.61;57.49;100710.38;5053312;28;20083;-63
2022/06/19 05:29:38;;;;;;;17.00;2.50;;;;;;;15.76;56.80;100734.97;5053447;28;20021;-63
2022/06/19 05:32:04;;;;;;;14.02;2.30;;;;;;;15.87;56.82;100749.00;5053168;28;20431;-63
2022/06/19 05:34:31;;;;;;;17.80;2.78;;;;;;;16.04;56.97;100760.19;5053026;28;20021;-63
2022/06/19 05:36:56;;;;;;;15.63;2.25;;;;;;;16.30;55.41;100780.16;5053470;28;20028;-63
2022/06/19 05:39:21;;;;;;;16.23;2.53;;;;;;;16.59;55.55;100812.47;5053379;28;20033;-64
2022/06/19 05:41:47;;;;;;;13.85;2.50;;;;;;;16.72;54.37;100811.31;5053073;28;20024;-64
2022/06/19 05:44:12;;;;;;;14.73;2.55;;;;;;;16.89;53.73;100816.28;5052957;28;20049;-64
2022/06/19 05:46:37;;;;;;;19.08;2.60;;;;;;;17.10;52.99;100817.59;5053096;28;20071;-64
2022/06/19 05:49:03;;;;;;;15.15;2.63;;;;;;;17.30;52.46;100811.81;5052567;28;20056;-64
2022/06/19 05:51:28;;;;;;;15.07;2.40;;;;;;;17.46;51.82;100812.31;5053074;28;20032;-64
2022/06/19 05:53:56;;;;;;;14.98;2.40;;;;;;;17.54;52.36;100802.28;5053023;28;20059;-64
2022/06/19 05:56:23;;;;;;;15.23;2.60;;;;;;;17.58;52.34;100805.78;5053103;28;20028;-63
2022/06/19 05:58:48;;;;;;;16.00;2.40;;;;;;;17.54;52.71;100844.16;5053230;28;20369;-64
2022/06/19 06:01:15;;;;;;;14.48;2.40;;;;;;;17.46;53.02;100859.50;5052733;28;20021;-64
2022/06/19 06:03:42;;;;;;;13.02;2.35;;;;;;;17.43;53.65;100852.47;5048876;28;20028;-64
2022/06/19 06:06:12;;;;;;;14.82;2.38;;;;;;;17.32;53.20;100855.38;5052766;28;20052;-64
2022/06/19 06:08:38;;;;;;;15.52;2.50;;;;;;;17.25;53.50;100861.78;5052660;28;20021;-64
2022/06/19 06:11:05;;;;;;;16.55;2.58;;;;;;;17.03;54.40;100888.09;5052490;28;20040;-64
2022/06/19 06:13:30;;;;;;;15.35;2.50;;;;;;;16.92;54.93;100895.44;5053150;28;20021;-64
2022/06/19 06:15:56;;;;;;;15.07;2.40;;;;;;;16.83;55.42;100920.50;5052544;28;20392;-64
2022/06/19 06:18:22;;;;;;;15.63;2.60;;;;;;;16.80;54.83;100917.91;5052282;28;20089;-63
2022/06/19 06:20:59;;;;;;;16.45;2.58;;;;;;;16.69;56.28;100905.66;5052601;28;20087;-64
2022/06/19 06:23:26;;;;;;;17.27;2.70;;;;;;;16.60;56.81;100919.19;5052641;28;20106;-64
2022/06/19 06:25:58;;;;;;;17.02;2.65;;;;;;;16.55;56.28;100971.75;5052176;28;20033;-63
2022/06/19 06:28:24;;;;;;;17.30;2.70;;;;;;;16.17;59.93;100997.31;5052578;28;20465;-64
2022/06/19 06:30:49;;;;;;;16.80;2.95;;;;;;;15.94;61.17;101001.22;5052234;28;20031;-64
2022/06/19 06:33:14;;;;;;;18.00;2.78;;;;;;;15.74;64.08;101016.59;5052063;28;20028;-64
2022/06/19 06:35:39;;;;;;;16.42;2.60;;;;;;;15.30;67.35;101062.47;5048290;28;20492;-64
2022/06/19 06:38:05;;;;;;;18.63;2.85;;;;;;;14.45;77.38;101124.41;5052454;28;20147;-63
2022/06/19 06:40:30;;;;;;;16.63;2.50;;;;;;;13.84;93.21;101141.63;5052220;28;20018;-64
2022/06/19 06:42:55;;;;;;;18.20;2.80;;;;;;;13.46;94.37;101125.84;5052467;28;20104;-64
2022/06/19 06:45:21;;;;;;;16.48;2.92;;;;;;;13.38;99.39;101136.47;5052094;28;20510;-64
2022/06/19 06:47:46;;;;;;;15.40;2.70;;;;;;;13.31;100.00;101135.56;5052351;28;20029;-64
2022/06/19 06:50:12;;;;;;;18.55;3.10;;;;;;;13.38;100.00;101129.41;5052295;28;20028;-64
2022/06/19 06:52:37;;;;;;;17.38;3.10;;;;;;;13.56;100.00;101117.81;5052039;28;20511;-63
2022/06/19 06:55:03;;;;;;;16.60;2.80;;;;;;;13.83;100.00;101112.41;5052102;28;20053;-63
2022/06/19 06:57:28;;;;;;;15.70;2.60;;;;;;;14.19;97.04;101105.97;5052112;28;20025;-63
2022/06/19 06:59:54;;;;;;;18.00;2.85;;;;;;;14.38;97.29;101103.22;5052105;28;20037;-64
2022/06/19 07:02:19;;;;;;;17.73;2.85;;;;;;;14.66;99.11;101092.38;5055415;28;20068;-63
2022/06/19 07:04:44;;;;;;;16.23;2.80;;;;;;;14.95;100.00;101074.34;5055821;28;20068;-63
2022/06/19 07:07:10;;;;;;;16.75;2.63;;;;;;;15.10;96.99;101091.97;5051066;28;20087;-63
2022/06/19 07:09:35;;;;;;;17.20;2.78;;;;;;;15.12;93.26;101083.97;5056292;28;20029;-64
2022/06/19 07:12:02;;;;;;;16.15;2.90;;;;;;;15.11;91.82;101093.72;5055770;28;20487;-64
2022/06/19 07:14:28;;;;;;;16.52;2.83;;;;;;;14.93;89.41;101097.44;5055850;28;20095;-64
2022/06/19 07:16:53;;;;;;;16.98;2.60;;;;;;;14.85;90.72;101123.25;5055953;28;20353;-64
2022/06/19 07:19:18;;;;;;;14.10;2.30;;;;;;;14.69;91.33;101154.41;5055382;28;20555;-63
2022/06/19 07:21:43;;;;;;;15.90;2.40;;;;;;;14.63;89.13;101142.06;5055573;28;20082;-63
2022/06/19 07:24:09;;;;;;;14.27;2.50;;;;;;;14.47;90.46;101130.63;5055623;28;20025;-63
2022/06/19 07:26:34;;;;;;;16.42;2.65;;;;;;;14.39;96.26;101103.19;5055580;28;20097;-63
2022/06/19 07:29:00;;;;;;;16.70;2.60;;;;;;;14.41;100.00;101073.94;5055439;28;20024;-64
2022/06/19 07:31:26;;;;;;;20.58;2.70;;;;;;;14.38;100.00;101058.88;5055603;28;20033;-64
2022/06/19 07:33:51;;;;;;;18.80;3.03;;;;;;;14.32;100.00;101027.00;5055736;28;20032;-64
2022/06/19 07:36:19;;;;;;;17.90;2.88;;;;;;;14.25;100.00;100998.72;5055555;28;20533;-64
2022/06/19 07:38:45;;;;;;;17.85;3.38;;;;;;;14.25;100.00;100970.34;5055515;28;20025;-64
2022/06/19 07:41:11;;;;;;;17.20;2.90;;;;;;;14.16;100.00;100977.53;5055268;28;20357;-64
2022/06/19 07:43:36;;;;;;;17.38;3.20;;;;;;;14.26;100.00;100971.25;5055282;28;20415;-64
2022/06/19 07:46:02;;;;;;;17.48;3.33;;;;;;;14.26;100.00;100958.81;5055107;28;20079;-64
2022/06/19 07:51:11;;;;;;;18.10;3.08;;;;;;;14.45;100.00;100918.75;5051353;28;20063;-64
2022/06/19 07:53:36;;;;;;;17.77;3.03;;;;;;;14.43;100.00;100968.41;5055270;28;20444;-64
2022/06/19 07:56:01;;;;;;;16.98;3.03;;;;;;;14.53;100.00;101035.69;5055014;28;20063;-64
2022/06/19 07:58:27;;;;;;;18.48;3.28;;;;;;;14.34;100.00;101069.56;5055202;28;20021;-64
2022/06/19 08:00:52;;;;;;;19.95;3.20;;;;;;;14.11;100.00;101107.78;5055140;28;20047;-64
2022/06/19 08:03:18;;;;;;;18.60;3.38;;;;;;;13.72;100.00;101100.03;5054832;28;20043;-64
2022/06/19 08:05:45;;;;;;;19.23;3.20;;;;;;;13.58;100.00;101070.88;5054719;28;20025;-64
2022/06/19 08:08:18;;;;;;;19.17;3.50;;;;;;;13.63;100.00;101046.97;5052066;28;20447;-66
2022/06/19 08:10:46;;;;;;;18.75;3.30;;;;;;;13.83;100.00;101036.22;5051463;28;20099;-67
2022/06/19 08:13:12;;;;;;;18.92;3.20;;;;;;;13.92;100.00;101027.31;5051564;28;20029;-67
2022/06/19 08:15:37;;;;;;;20.20;3.90;;;;;;;14.12;100.00;100995.28;5051834;28;20071;-66
2022/06/19 08:18:03;;;;;;;18.15;3.10;;;;;;;14.11;100.00;101049.31;5052556;28;20031;-67
2022/06/19 08:20:29;;;;;;;17.80;3.70;;;;;;;14.20;100.00;101069.63;5051053;28;20430;-65
2022/06/19 08:22:54;;;;;;;19.45;4.00;;;;;;;14.27;100.00;101035.03;5052906;28;20518;-65
2022/06/19 08:25:22;;;;;;;21.17;4.15;;;;;;;14.45;100.00;101003.88;5052828;28;20033;-67
2022/06/19 08:27:49;;;;;;;19.15;3.80;;;;;;;14.58;100.00;101017.94;5052708;28;20033;-66
2022/06/19 08:30:44;;;;;;;17.27;3.83;;;;;;;14.84;100.00;100995.50;5052578;28;20025;-66
2022/06/19 08:33:10;;;;;;;22.55;3.80;;;;;;;15.01;100.00;100990.00;5028930;28;20033;-65
2022/06/19 08:35:41;;;;;;;21.65;3.40;;;;;;;14.84;100.00;100988.44;5028778;28;20018;-66
2022/06/19 08:38:12;;;;;;;18.45;3.67;;;;;;;14.79;100.00;100974.28;5029791;28;20064;-64
2022/06/19 08:40:39;;;;;;;19.92;3.67;;;;;;;14.90;100.00;100966.19;5029732;28;20045;-65
2022/06/19 08:43:17;;;;;;;19.60;3.60;;;;;;;14.98;100.00;100951.91;5030533;28;20057;-65
2022/06/19 08:46:12;;;;;;;21.30;3.78;;;;;;;15.00;100.00;100927.91;5030486;28;20071;-65
2022/06/19 08:48:43;;;;;;;19.70;4.00;;;;;;;15.11;100.00;100887.84;5026196;28;20116;-65
2022/06/19 08:51:16;;;;;;;20.23;4.15;;;;;;;15.19;100.00;100893.03;5026698;28;20109;-64
2022/06/19 08:54:04;;;;;;;21.10;3.65;;;;;;;15.33;100.00;100904.38;5026984;28;20473;-64
2022/06/19 08:56:47;;;;;;;21.58;4.10;;;;;;;15.60;100.00;100927.06;5028622;28;20087;-64
2022/06/19 08:59:15;;;;;;;;;;;;;;;15.89;100.00;100931.13;5030657;28;20036;-64
2022/06/19 09:01:56;;;;;;;20.75;4.20;;;;;;;15.99;100.00;100922.06;5029026;28;19923;-64
2022/06/19 09:08:01;;;;;;;17.67;3.60;;;;;;;16.83;100.00;100958.75;5030251;28;20106;-63
2022/06/19 09:10:45;;;;;;;18.65;3.70;;;;;;;16.76;100.00;100977.59;5048886;28;20048;-64
2022/06/19 09:13:42;;;;;;;18.45;3.80;;;;;;;16.99;100.00;100980.72;5051826;28;20067;-63
2022/06/19 09:16:20;;;;;;;17.85;3.30;;;;;;;17.27;100.00;101008.66;5052026;28;20052;-64
2022/06/19 09:18:54;;;;;;;19.83;3.65;;;;;;;17.89;100.00;101043.81;5049309;28;20456;-64
2022/06/19 09:21:45;;;;;;;16.60;3.20;;;;;;;18.00;100.00;101070.38;5049933;28;20031;-64
2022/06/19 09:24:28;;;;;;;18.55;3.53;;;;;;;17.75;100.00;101070.88;5051152;28;20549;-64
2022/06/19 09:26:57;;;;;;;18.40;3.63;;;;;;;17.70;100.00;101058.53;5049192;28;20415;-64
2022/06/19 09:29:28;;;;;;;17.15;3.42;;;;;;;17.73;100.00;101061.13;5048576;28;20021;-64
2022/06/19 09:31:58;;;;;;;19.20;3.67;;;;;;;18.06;100.00;101048.81;5051035;28;20035;-63
2022/06/19 09:34:34;;;;;;;18.58;3.70;;;;;;;18.29;100.00;101050.06;5052038;28;20037;-63
2022/06/19 09:37:14;;;;;;;18.13;3.80;;;;;;;18.24;100.00;101043.94;5049601;28;20032;-64
2022/06/19 09:39:47;;;;;;;18.35;3.70;;;;;;;18.21;100.00;101030.63;5051212;28;20037;-64
2022/06/19 09:42:27;;;;;;;18.88;3.80;;;;;;;18.50;100.00;101021.00;5050979;28;20017;-64
2022/06/19 09:45:02;;;;;;;19.02;3.45;;;;;;;18.81;100.00;101000.53;5049394;28;20059;-63
2022/06/19 09:47:46;;;;;;;19.38;3.47;;;;;;;19.10;100.00;100990.81;5053143;28;20032;-64
2022/06/19 09:50:19;;;;;;;18.80;3.80;;;;;;;19.29;100.00;100969.72;5050800;28;20472;-65
2022/06/19 09:52:56;;;;;;;17.50;3.40;;;;;;;19.50;96.83;100968.19;5052154;28;20078;-67
2022/06/19 09:55:48;;;;;;;17.45;3.45;;;;;;;19.19;96.75;100978.06;5049503;28;20027;-64
2022/06/19 09:58:16;;;;;;;20.00;3.80;;;;;;;19.06;97.49;100978.44;5050560;28;20395;-64
2022/06/19 10:00:44;;;;;;;18.33;3.60;;;;;;;18.83;99.38;100954.97;5050730;28;20025;-65
2022/06/19 10:03:19;;;;;;;16.33;3.50;;;;;;;19.03;98.23;100946.38;5048651;28;20025;-65
2022/06/19 10:06:13;;;;;;;17.98;3.63;;;;;;;19.16;97.29;100946.88;5050905;28;20032;-64
2022/06/19 10:09:01;;;;;;;18.10;3.78;;;;;;;18.88;99.37;100942.34;5047434;28;20048;-64
2022/06/19 10:11:30;;;;;;;18.63;3.90;;;;;;;19.44;94.99;100936.22;5049475;28;20074;-63
2022/06/19 10:14:30;;;;;;;17.73;3.90;;;;;;;21.36;88.11;100932.25;5050494;28;20025;-63
2022/06/19 10:17:01;;;;;;;16.80;3.63;;;;;;;22.61;72.06;100917.22;5049151;28;20025;-66
2022/06/19 10:19:43;;;;;;;14.23;2.90;;;;;;;23.40;64.98;100913.63;5050881;28;20392;-68
2022/06/19 10:22:14;;;;;;;14.00;2.70;;;;;;;24.16;61.64;100904.50;5051187;28;20123;-63
2022/06/19 10:25:02;;;;;;;15.65;2.70;;;;;;;25.48;53.74;100915.41;5049179;28;20083;-63
2022/06/19 10:27:39;;;;;;;15.40;3.05;;;;;;;24.88;51.36;100910.63;5048889;28;20075;-63
2022/06/19 10:30:15;;;;;;;14.90;2.70;;;;;;;24.15;54.15;100895.50;5049778;28;20032;-63
2022/06/19 10:33:05;;;;;;;14.82;2.70;;;;;;;24.47;53.25;100911.00;5052561;28;20056;-64
2022/06/19 10:35:49;;;;;;;14.07;2.80;;;;;;;25.66;51.24;100943.28;5049451;28;20103;-63
2022/06/19 10:38:40;;;;;;;14.60;2.72;;;;;;;26.22;47.88;100940.06;5052406;28;20040;-64
2022/06/19 10:41:05;;;;;;;9.60;2.30;;;;;;;25.16;45.98;100923.47;5054960;28;20024;-63
2022/06/19 10:43:40;;;;;;;13.40;2.43;;;;;;;24.61;48.96;100921.97;5056384;28;20497;-64
2022/06/19 10:46:11;;;;;;;13.55;2.42;;;;;;;24.49;47.30;100911.78;5055858;28;20299;-63
2022/06/19 10:48:51;;;;;;;13.48;2.33;;;;;;;24.99;45.30;100920.84;5056463;28;20118;-63
2022/06/19 10:51:46;;;;;;;13.60;2.42;;;;;;;25.35;45.71;100931.50;5052315;28;20017;-63
2022/06/19 10:54:39;;;;;;;11.80;2.30;;;;;;;25.49;44.00;100940.66;5055946;28;20037;-63
2022/06/19 10:57:16;;;;;;;;;;;;;;;25.52;45.16;100956.72;5055167;28;20045;-64
2022/06/19 10:59:42;;;;;;;14.02;2.60;;;;;;;24.81;43.14;100969.53;5056214;28;19908;-64
2022/06/19 11:05:37;;;;;;;11.25;2.50;;;;;;;24.75;45.97;100983.38;5055696;28;20103;-63
2022/06/19 11:08:03;;;;;;;11.63;2.67;;;;;;;24.75;42.78;100971.72;5028150;28;20095;-63
2022/06/19 11:10:37;;;;;;;8.82;2.15;;;;;;;24.93;42.03;100969.84;5033830;28;20041;-64
2022/06/19 11:13:05;;;;;;;11.52;2.50;;;;;;;25.43;43.63;100968.06;5033647;28;20487;-63
2022/06/19 11:15:43;;;;;;;12.30;2.65;;;;;;;26.08;39.14;100973.38;5033635;28;20037;-65
2022/06/19 11:18:14;;;;;;;14.50;2.40;;;;;;;26.27;40.83;100982.16;5033656;28;20022;-63
2022/06/19 11:20:54;;;;;;;12.15;2.60;;;;;;;25.46;41.32;101003.06;5033732;28;20624;-63
2022/06/19 11:23:27;;;;;;;13.02;2.60;;;;;;;24.88;42.58;101003.41;5033816;28;20033;-64
2022/06/19 11:26:13;;;;;;;12.20;2.50;;;;;;;24.58;44.18;101007.69;5033385;28;20099;-63
2022/06/19 11:28:50;;;;;;;13.43;2.50;;;;;;;24.73;43.91;101009.63;5033520;28;20492;-64
2022/06/19 11:31:26;;;;;;;13.02;2.65;;;;;;;25.28;40.10;101008.50;5033281;28;20063;-63
2022/06/19 11:33:57;;;;;;;14.38;2.75;;;;;;;25.71;40.79;101016.94;5033407;28;20104;-64
2022/06/19 11:36:36;;;;;;;16.30;3.10;;;;;;;25.86;40.96;101019.75;5033343;28;20030;-64
2022/06/19 11:39:32;;;;;;;13.60;2.70;;;;;;;25.56;40.47;101031.34;5033385;28;20076;-63
2022/06/19 11:41:58;;;;;;;14.75;2.67;;;;;;;25.05;41.77;101018.72;5033106;28;20379;-64